createdAt,value
2018-08-16T00:00:11.799Z,0.00
2018-08-16T00:01:11.791Z,0.00
2018-08-16T00:02:11.768Z,0.00
2018-08-16T00:03:11.769Z,0.00
2018-08-16T00:04:11.736Z,0.00
2018-08-16T00:05:11.723Z,0.00
2018-08-16T00:06:11.708Z,0.00
2018-08-16T00:07:11.698Z,0.00
2018-08-16T00:08:11.677Z,0.00
2018-08-16T00:09:11.661Z,0.00
2018-08-16T00:10:11.648Z,0.00
2018-08-16T00:11:11.630Z,0.00
2018-08-16T00:12:11.616Z,0.00
2018-08-16T00:13:11.599Z,0.00
2018-08-16T00:14:11.585Z,0.00
2018-08-16T00:15:11.566Z,0.00
2018-08-16T00:16:11.552Z,0.00
2018-08-16T00:17:11.539Z,0.00
2018-08-16T00:18:11.518Z,0.00
2018-08-16T00:19:11.504Z,0.00
2018-08-16T00:20:11.490Z,0.00
2018-08-16T00:21:11.477Z,0.00
2018-08-16T00:22:11.456Z,0.00
2018-08-16T00:23:11.445Z,0.00
2018-08-16T00:24:11.433Z,0.00
2018-08-16T00:25:11.421Z,0.00
2018-08-16T00:26:11.395Z,0.00
2018-08-16T00:27:11.379Z,0.00
2018-08-16T00:28:11.376Z,0.00
2018-08-16T00:29:11.348Z,0.00
2018-08-16T00:30:11.333Z,0.00
2018-08-16T00:31:11.318Z,0.00
2018-08-16T00:32:11.301Z,0.00
2018-08-16T00:33:11.283Z,0.00
2018-08-16T00:34:11.268Z,0.00
2018-08-16T00:35:11.252Z,0.00
2018-08-16T00:36:11.238Z,0.00
2018-08-16T00:37:11.229Z,0.00
2018-08-16T00:38:11.207Z,0.00
2018-08-16T00:39:11.189Z,0.00
2018-08-16T00:40:11.178Z,0.00
2018-08-16T00:41:11.159Z,0.00
2018-08-16T00:42:11.143Z,0.00
2018-08-16T00:43:11.127Z,0.00
2018-08-16T00:44:11.110Z,0.00
2018-08-16T00:45:11.098Z,0.00
2018-08-16T00:46:11.080Z,0.00
2018-08-16T00:47:11.072Z,0.00
2018-08-16T00:48:11.049Z,0.00
2018-08-16T00:49:11.039Z,0.00
2018-08-16T00:50:11.017Z,0.00
2018-08-16T00:51:11.001Z,0.00
2018-08-16T00:52:10.985Z,0.00
2018-08-16T00:53:10.969Z,0.00
2018-08-16T00:54:10.958Z,0.00
2018-08-16T00:55:10.948Z,0.00
2018-08-16T00:56:10.923Z,0.00
2018-08-16T00:57:10.907Z,0.00
2018-08-16T00:58:10.891Z,0.00
2018-08-16T00:59:10.874Z,0.00
2018-08-16T01:00:10.869Z,0.00
2018-08-16T01:01:10.857Z,0.00
2018-08-16T01:02:10.827Z,0.00
2018-08-16T01:03:10.812Z,0.00
2018-08-16T01:04:10.797Z,0.00
2018-08-16T01:05:10.781Z,0.00
2018-08-16T01:06:10.764Z,0.00
2018-08-16T01:07:10.751Z,0.00
2018-08-16T01:08:10.733Z,0.00
2018-08-16T01:09:10.717Z,0.00
2018-08-16T01:10:10.701Z,0.00
2018-08-16T01:11:10.686Z,0.00
2018-08-16T01:12:10.669Z,0.00
2018-08-16T01:13:10.655Z,0.00
2018-08-16T01:14:10.636Z,0.00
2018-08-16T01:15:10.626Z,0.00
2018-08-16T01:16:10.605Z,0.00
2018-08-16T01:17:10.591Z,0.00
2018-08-16T01:18:10.576Z,0.00
2018-08-16T01:19:10.563Z,0.00
2018-08-16T01:20:10.604Z,0.00
2018-08-16T01:21:10.528Z,0.00
2018-08-16T01:22:10.520Z,0.00
2018-08-16T01:23:10.495Z,0.00
2018-08-16T01:24:10.481Z,0.00
2018-08-16T01:25:10.464Z,0.00
2018-08-16T01:26:10.451Z,0.00
2018-08-16T01:27:10.433Z,0.00
2018-08-16T01:28:10.421Z,0.00
2018-08-16T01:29:10.399Z,0.00
2018-08-16T01:30:10.385Z,0.00
2018-08-16T01:31:10.378Z,0.00
2018-08-16T01:32:10.351Z,0.00
2018-08-16T01:33:10.334Z,0.00
2018-08-16T01:34:10.326Z,0.00
2018-08-16T01:35:10.301Z,0.00
2018-08-16T01:36:10.289Z,0.00
2018-08-16T01:37:10.275Z,0.00
2018-08-16T01:38:10.256Z,0.00
2018-08-16T01:39:10.240Z,0.00
2018-08-16T01:40:10.224Z,0.00
2018-08-16T01:41:10.209Z,0.00
2018-08-16T01:42:10.190Z,0.00
2018-08-16T01:43:10.177Z,0.00
2018-08-16T01:44:10.167Z,0.00
2018-08-16T01:45:10.147Z,0.00
2018-08-16T01:46:10.127Z,0.00
2018-08-16T01:47:10.114Z,0.00
2018-08-16T01:48:10.097Z,0.00
2018-08-16T01:49:10.079Z,0.00
2018-08-16T01:50:10.063Z,0.00
2018-08-16T01:51:10.048Z,0.00
2018-08-16T01:52:10.039Z,0.00
2018-08-16T01:53:10.017Z,0.00
2018-08-16T01:54:09.999Z,0.00
2018-08-16T01:55:09.985Z,0.00
2018-08-16T01:56:09.969Z,0.00
2018-08-16T01:57:09.952Z,0.00
2018-08-16T01:58:09.936Z,0.00
2018-08-16T01:59:09.921Z,0.00
2018-08-16T02:00:09.904Z,0.00
2018-08-16T02:01:09.893Z,0.00
2018-08-16T02:02:09.872Z,0.00
2018-08-16T02:03:09.858Z,0.00
2018-08-16T02:04:09.840Z,0.00
2018-08-16T02:05:09.877Z,0.00
2018-08-16T02:06:09.807Z,0.00
2018-08-16T02:07:09.790Z,0.00
2018-08-16T02:08:09.775Z,0.00
2018-08-16T02:09:09.762Z,0.00
2018-08-16T02:10:09.745Z,0.00
2018-08-16T02:11:09.728Z,0.00
2018-08-16T02:12:09.722Z,0.00
2018-08-16T02:13:09.696Z,0.00
2018-08-16T02:14:09.685Z,0.00
2018-08-16T02:15:09.664Z,0.00
2018-08-16T02:16:09.648Z,0.00
2018-08-16T02:17:09.631Z,0.00
2018-08-16T02:18:09.613Z,0.00
2018-08-16T02:19:09.600Z,0.00
2018-08-16T02:20:09.585Z,0.00
2018-08-16T02:21:09.568Z,0.00
2018-08-16T02:22:09.551Z,0.00
2018-08-16T02:23:09.534Z,0.00
2018-08-16T02:24:09.519Z,0.00
2018-08-16T02:25:09.502Z,0.00
2018-08-16T02:26:09.485Z,0.00
2018-08-16T02:27:09.467Z,0.00
2018-08-16T02:28:09.454Z,0.00
2018-08-16T02:29:09.440Z,0.00
2018-08-16T02:30:09.421Z,0.00
2018-08-16T02:31:09.405Z,0.00
2018-08-16T02:32:09.389Z,0.00
2018-08-16T02:33:09.373Z,0.00
2018-08-16T02:34:09.356Z,0.00
2018-08-16T02:35:09.339Z,0.00
2018-08-16T02:36:09.325Z,0.00
2018-08-16T02:37:09.311Z,0.00
2018-08-16T02:38:09.292Z,0.00
2018-08-16T02:39:09.278Z,0.00
2018-08-16T02:40:09.260Z,0.00
2018-08-16T02:41:09.244Z,0.00
2018-08-16T02:42:09.227Z,0.00
2018-08-16T02:43:09.210Z,0.00
2018-08-16T02:44:09.193Z,0.00
2018-08-16T02:45:09.179Z,0.00
2018-08-16T02:46:09.163Z,0.00
2018-08-16T02:47:09.147Z,0.00
2018-08-16T02:48:09.129Z,0.00
2018-08-16T02:49:09.113Z,0.00
2018-08-16T02:50:09.098Z,0.00
2018-08-16T02:51:09.093Z,0.00
2018-08-16T02:52:09.065Z,0.00
2018-08-16T02:53:09.050Z,0.00
2018-08-16T02:54:09.030Z,0.00
2018-08-16T02:55:09.016Z,0.00
2018-08-16T02:56:08.999Z,0.00
2018-08-16T02:57:08.983Z,0.00
2018-08-16T02:58:08.969Z,0.00
2018-08-16T02:59:08.955Z,0.00
2018-08-16T03:00:08.938Z,0.00
2018-08-16T03:01:08.923Z,0.00
2018-08-16T03:02:08.905Z,0.00
2018-08-16T03:03:08.885Z,0.00
2018-08-16T03:04:08.875Z,0.00
2018-08-16T03:05:08.856Z,0.00
2018-08-16T03:06:08.913Z,0.00
2018-08-16T03:07:08.824Z,0.00
2018-08-16T03:08:08.808Z,0.00
2018-08-16T03:09:08.793Z,0.00
2018-08-16T03:10:08.773Z,0.00
2018-08-16T03:11:08.760Z,0.00
2018-08-16T03:12:08.802Z,0.00
2018-08-16T03:13:08.730Z,0.00
2018-08-16T03:14:08.710Z,0.00
2018-08-16T03:15:08.694Z,0.00
2018-08-16T03:16:08.680Z,0.00
2018-08-16T03:17:08.667Z,0.00
2018-08-16T03:18:08.648Z,0.00
2018-08-16T03:19:08.632Z,0.00
2018-08-16T03:20:08.616Z,0.00
2018-08-16T03:21:08.598Z,0.00
2018-08-16T03:22:08.583Z,0.00
2018-08-16T03:23:08.564Z,0.00
2018-08-16T03:24:08.561Z,0.00
2018-08-16T03:25:08.535Z,0.00
2018-08-16T03:26:08.517Z,0.00
2018-08-16T03:27:08.508Z,0.00
2018-08-16T03:28:08.492Z,0.00
2018-08-16T03:29:08.471Z,0.00
2018-08-16T03:30:08.455Z,0.00
2018-08-16T03:31:08.450Z,0.00
2018-08-16T03:32:08.423Z,0.00
2018-08-16T03:33:08.406Z,0.00
2018-08-16T03:34:08.391Z,0.00
2018-08-16T03:35:08.421Z,0.00
2018-08-16T03:36:08.360Z,0.00
2018-08-16T03:37:08.344Z,0.00
2018-08-16T03:38:08.341Z,0.00
2018-08-16T03:39:08.310Z,0.00
2018-08-16T03:40:08.293Z,0.00
2018-08-16T03:41:08.282Z,0.00
2018-08-16T03:42:08.262Z,0.00
2018-08-16T03:43:08.248Z,0.00
2018-08-16T03:44:08.231Z,0.00
2018-08-16T03:45:08.218Z,0.00
2018-08-16T03:46:08.203Z,0.00
2018-08-16T03:47:08.190Z,0.00
2018-08-16T03:48:08.205Z,0.00
2018-08-16T03:49:08.151Z,0.00
2018-08-16T03:50:08.135Z,0.00
2018-08-16T03:51:08.120Z,0.00
2018-08-16T03:52:08.103Z,0.00
2018-08-16T03:53:08.091Z,0.00
2018-08-16T03:54:08.070Z,0.00
2018-08-16T03:55:08.057Z,0.00
2018-08-16T03:56:08.038Z,0.00
2018-08-16T03:57:08.029Z,4.00
2018-08-16T03:58:08.006Z,0.00
2018-08-16T03:59:07.992Z,0.00
2018-08-16T04:00:07.974Z,0.00
2018-08-16T04:01:07.960Z,4.00
2018-08-16T04:02:07.943Z,4.00
2018-08-16T04:03:07.924Z,0.00
2018-08-16T04:04:07.909Z,4.00
2018-08-16T04:05:07.896Z,4.00
2018-08-16T04:06:07.877Z,4.00
2018-08-16T04:07:07.861Z,4.00
2018-08-16T04:08:07.845Z,8.00
2018-08-16T04:09:07.829Z,4.00
2018-08-16T04:10:07.814Z,8.00
2018-08-16T04:11:07.802Z,8.00
2018-08-16T04:12:07.785Z,8.00
2018-08-16T04:13:07.767Z,8.00
2018-08-16T04:14:07.758Z,8.00
2018-08-16T04:15:07.732Z,12.00
2018-08-16T04:16:07.723Z,12.00
2018-08-16T04:17:07.704Z,12.00
2018-08-16T04:18:07.689Z,12.00
2018-08-16T04:19:07.668Z,16.00
2018-08-16T04:20:07.655Z,16.00
2018-08-16T04:21:07.640Z,16.00
2018-08-16T04:22:07.621Z,16.00
2018-08-16T04:23:07.610Z,20.00
2018-08-16T04:24:07.593Z,20.00
2018-08-16T04:25:07.572Z,20.00
2018-08-16T04:26:07.563Z,24.00
2018-08-16T04:27:07.546Z,28.00
2018-08-16T04:28:07.523Z,28.00
2018-08-16T04:29:07.558Z,28.00
2018-08-16T04:30:07.492Z,32.00
2018-08-16T04:31:07.476Z,32.00
2018-08-16T04:32:07.459Z,36.00
2018-08-16T04:33:07.444Z,36.00
2018-08-16T04:34:07.428Z,40.00
2018-08-16T04:35:07.450Z,40.00
2018-08-16T04:36:07.396Z,40.00
2018-08-16T04:37:07.379Z,44.00
2018-08-16T04:38:07.364Z,48.00
2018-08-16T04:39:07.348Z,48.00
2018-08-16T04:40:07.338Z,52.00
2018-08-16T04:41:07.316Z,56.00
2018-08-16T04:42:07.369Z,60.00
2018-08-16T04:43:07.287Z,60.00
2018-08-16T04:44:07.274Z,64.00
2018-08-16T04:45:07.257Z,68.00
2018-08-16T04:46:07.235Z,68.00
2018-08-16T04:47:07.223Z,72.00
2018-08-16T04:48:07.203Z,76.00
2018-08-16T04:49:07.188Z,76.00
2018-08-16T04:50:07.170Z,76.00
2018-08-16T04:51:07.160Z,80.00
2018-08-16T04:52:07.138Z,84.00
2018-08-16T04:53:07.123Z,84.00
2018-08-16T04:54:07.104Z,88.00
2018-08-16T04:55:07.095Z,92.00
2018-08-16T04:56:07.075Z,96.00
2018-08-16T04:57:07.056Z,96.00
2018-08-16T04:58:07.040Z,100.00
2018-08-16T04:59:07.025Z,100.00
2018-08-16T05:00:07.010Z,108.00
2018-08-16T05:01:06.997Z,108.00
2018-08-16T05:02:06.987Z,112.00
2018-08-16T05:03:06.960Z,112.00
2018-08-16T05:04:06.944Z,116.00
2018-08-16T05:05:06.929Z,120.00
2018-08-16T05:06:06.912Z,124.00
2018-08-16T05:07:06.897Z,128.00
2018-08-16T05:08:06.879Z,132.00
2018-08-16T05:09:06.864Z,136.00
2018-08-16T05:10:06.848Z,140.00
2018-08-16T05:11:06.855Z,140.00
2018-08-16T05:12:06.823Z,144.00
2018-08-16T05:13:06.800Z,148.00
2018-08-16T05:14:06.784Z,152.00
2018-08-16T05:15:06.770Z,160.00
2018-08-16T05:16:06.759Z,164.00
2018-08-16T05:17:06.767Z,164.00
2018-08-16T05:18:06.718Z,172.00
2018-08-16T05:19:06.705Z,176.00
2018-08-16T05:20:06.693Z,180.00
2018-08-16T05:21:06.670Z,180.00
2018-08-16T05:22:06.658Z,184.00
2018-08-16T05:23:06.637Z,184.00
2018-08-16T05:24:06.627Z,188.00
2018-08-16T05:25:06.605Z,192.00
2018-08-16T05:26:06.594Z,192.00
2018-08-16T05:27:06.573Z,192.00
2018-08-16T05:28:06.558Z,192.00
2018-08-16T05:29:06.541Z,192.00
2018-08-16T05:30:06.536Z,196.00
2018-08-16T05:31:06.508Z,192.00
2018-08-16T05:32:06.492Z,196.00
2018-08-16T05:33:06.484Z,192.00
2018-08-16T05:34:06.461Z,192.00
2018-08-16T05:35:06.446Z,196.00
2018-08-16T05:36:06.430Z,196.00
2018-08-16T05:37:06.416Z,196.00
2018-08-16T05:38:06.396Z,192.00
2018-08-16T05:39:06.386Z,192.00
2018-08-16T05:40:06.364Z,196.00
2018-08-16T05:41:06.348Z,204.00
2018-08-16T05:42:06.331Z,204.00
2018-08-16T05:43:06.407Z,212.00
2018-08-16T05:44:06.304Z,212.00
2018-08-16T05:45:06.295Z,216.00
2018-08-16T05:46:06.271Z,220.00
2018-08-16T05:47:06.265Z,220.00
2018-08-16T05:48:06.242Z,224.00
2018-08-16T05:49:06.221Z,224.00
2018-08-16T05:50:06.211Z,228.00
2018-08-16T05:51:06.189Z,228.00
2018-08-16T05:52:06.175Z,232.00
2018-08-16T05:53:06.161Z,232.00
2018-08-16T05:54:06.144Z,232.00
2018-08-16T05:55:06.127Z,236.00
2018-08-16T05:56:06.109Z,240.00
2018-08-16T05:57:06.098Z,244.00
2018-08-16T05:58:06.077Z,244.00
2018-08-16T05:59:06.061Z,248.00
2018-08-16T06:00:06.047Z,252.00
2018-08-16T06:01:06.034Z,252.00
2018-08-16T06:02:06.015Z,256.00
2018-08-16T06:03:06.003Z,260.00
2018-08-16T06:04:05.985Z,264.00
2018-08-16T06:05:06.002Z,272.00
2018-08-16T06:06:05.951Z,272.00
2018-08-16T06:07:05.933Z,276.00
2018-08-16T06:08:05.919Z,280.00
2018-08-16T06:09:05.906Z,280.00
2018-08-16T06:10:05.885Z,288.00
2018-08-16T06:11:05.872Z,288.00
2018-08-16T06:12:05.855Z,292.00
2018-08-16T06:13:05.839Z,296.00
2018-08-16T06:14:05.822Z,304.00
2018-08-16T06:15:05.809Z,300.00
2018-08-16T06:16:05.790Z,304.00
2018-08-16T06:17:05.776Z,308.00
2018-08-16T06:18:05.761Z,312.00
2018-08-16T06:19:05.742Z,316.00
2018-08-16T06:20:05.728Z,324.00
2018-08-16T06:21:05.716Z,328.00
2018-08-16T06:22:05.695Z,332.00
2018-08-16T06:23:05.683Z,340.00
2018-08-16T06:24:05.730Z,352.00
2018-08-16T06:25:05.648Z,356.00
2018-08-16T06:26:05.632Z,364.00
2018-08-16T06:27:05.616Z,372.00
2018-08-16T06:28:05.600Z,380.00
2018-08-16T06:29:05.587Z,396.00
2018-08-16T06:30:05.569Z,404.00
2018-08-16T06:31:05.556Z,412.00
2018-08-16T06:32:05.537Z,416.00
2018-08-16T06:33:05.521Z,432.00
2018-08-16T06:34:05.506Z,448.00
2018-08-16T06:35:05.489Z,468.00
2018-08-16T06:36:05.483Z,492.00
2018-08-16T06:37:05.467Z,540.00
2018-08-16T06:38:05.440Z,604.00
2018-08-16T06:39:05.426Z,652.00
2018-08-16T06:40:05.410Z,668.00
2018-08-16T06:41:05.398Z,672.00
2018-08-16T06:42:05.381Z,668.00
2018-08-16T06:43:05.368Z,656.00
2018-08-16T06:44:05.349Z,640.00
2018-08-16T06:45:05.333Z,640.00
2018-08-16T06:46:05.315Z,632.00
2018-08-16T06:47:05.300Z,616.00
2018-08-16T06:48:05.286Z,600.00
2018-08-16T06:49:05.277Z,612.00
2018-08-16T06:50:05.258Z,636.00
2018-08-16T06:51:05.235Z,636.00
2018-08-16T06:52:05.230Z,620.00
2018-08-16T06:53:05.205Z,584.00
2018-08-16T06:54:05.196Z,564.00
2018-08-16T06:55:05.174Z,588.00
2018-08-16T06:56:05.171Z,576.00
2018-08-16T06:57:05.144Z,564.00
2018-08-16T06:58:05.128Z,548.00
2018-08-16T06:59:05.112Z,536.00
2018-08-16T07:00:05.096Z,524.00
2018-08-16T07:01:05.082Z,520.00
2018-08-16T07:02:05.065Z,524.00
2018-08-16T07:03:05.048Z,532.00
2018-08-16T07:04:05.042Z,536.00
2018-08-16T07:05:05.020Z,540.00
2018-08-16T07:06:05.004Z,544.00
2018-08-16T07:07:04.988Z,560.00
2018-08-16T07:08:04.973Z,572.00
2018-08-16T07:09:04.957Z,584.00
2018-08-16T07:10:04.942Z,592.00
2018-08-16T07:11:04.925Z,596.00
2018-08-16T07:12:04.979Z,608.00
2018-08-16T07:13:04.903Z,624.00
2018-08-16T07:14:04.879Z,628.00
2018-08-16T07:15:04.865Z,636.00
2018-08-16T07:16:04.846Z,652.00
2018-08-16T07:17:04.838Z,652.00
2018-08-16T07:18:04.817Z,656.00
2018-08-16T07:19:04.801Z,688.00
2018-08-16T07:20:04.787Z,704.00
2018-08-16T07:21:04.781Z,712.00
2018-08-16T07:22:04.756Z,720.00
2018-08-16T07:23:04.738Z,744.00
2018-08-16T07:24:04.736Z,764.00
2018-08-16T07:25:04.706Z,780.00
2018-08-16T07:26:04.691Z,800.00
2018-08-16T07:27:04.678Z,820.00
2018-08-16T07:28:04.660Z,848.00
2018-08-16T07:29:04.647Z,836.00
2018-08-16T07:30:04.706Z,864.00
2018-08-16T07:31:04.615Z,896.00
2018-08-16T07:32:04.607Z,932.00
2018-08-16T07:33:04.589Z,972.00
2018-08-16T07:34:04.568Z,984.00
2018-08-16T07:35:04.552Z,972.00
2018-08-16T07:36:04.539Z,988.00
2018-08-16T07:37:04.525Z,1028.00
2018-08-16T07:38:04.506Z,1084.00
2018-08-16T07:39:04.493Z,1088.00
2018-08-16T07:40:04.478Z,1044.00
2018-08-16T07:41:04.463Z,1100.00
2018-08-16T07:42:04.451Z,1132.00
2018-08-16T07:43:04.433Z,1176.00
2018-08-16T07:44:04.417Z,1188.00
2018-08-16T07:45:04.401Z,1212.00
2018-08-16T07:46:04.542Z,1236.00
2018-08-16T07:47:04.372Z,1244.00
2018-08-16T07:48:04.357Z,1244.00
2018-08-16T07:49:04.343Z,1292.00
2018-08-16T07:50:04.325Z,1284.00
2018-08-16T07:51:04.394Z,1296.00
2018-08-16T07:52:04.412Z,1308.00
2018-08-16T07:53:04.282Z,1336.00
2018-08-16T07:54:04.267Z,1360.00
2018-08-16T07:55:04.255Z,1344.00
2018-08-16T07:56:04.235Z,1388.00
2018-08-16T07:57:04.294Z,1428.00
2018-08-16T07:58:04.207Z,1428.00
2018-08-16T07:59:04.191Z,1448.00
2018-08-16T08:00:04.188Z,1460.00
2018-08-16T08:01:04.163Z,1464.00
2018-08-16T08:02:04.149Z,1440.00
2018-08-16T08:03:04.132Z,1420.00
2018-08-16T08:04:04.118Z,1388.00
2018-08-16T08:05:04.106Z,1488.00
2018-08-16T08:06:04.091Z,1464.00
2018-08-16T08:07:04.081Z,1516.00
2018-08-16T08:08:04.058Z,1552.00
2018-08-16T08:09:04.210Z,1596.00
2018-08-16T08:10:04.029Z,1592.00
2018-08-16T08:11:04.018Z,1644.00
2018-08-16T08:12:04.000Z,1636.00
2018-08-16T08:13:03.987Z,1668.00
2018-08-16T08:14:03.974Z,1656.00
2018-08-16T08:15:03.958Z,1592.00
2018-08-16T08:16:03.942Z,1584.00
2018-08-16T08:17:03.931Z,1704.00
2018-08-16T08:18:03.913Z,1792.00
2018-08-16T08:19:03.908Z,1788.00
2018-08-16T08:20:03.890Z,1704.00
2018-08-16T08:21:03.871Z,1696.00
2018-08-16T08:22:03.861Z,1828.00
2018-08-16T08:23:03.842Z,1860.00
2018-08-16T08:24:03.826Z,1828.00
2018-08-16T08:25:03.813Z,1808.00
2018-08-16T08:26:03.796Z,1700.00
2018-08-16T08:27:03.785Z,1784.00
2018-08-16T08:28:03.780Z,1904.00
2018-08-16T08:29:03.758Z,1904.00
2018-08-16T08:30:03.738Z,1944.00
2018-08-16T08:31:03.725Z,1936.00
2018-08-16T08:32:03.712Z,1900.00
2018-08-16T08:33:03.698Z,2016.00
2018-08-16T08:34:03.682Z,2072.00
2018-08-16T08:35:03.667Z,2016.00
2018-08-16T08:36:03.663Z,2004.00
2018-08-16T08:37:03.640Z,1980.00
2018-08-16T08:38:03.636Z,1992.00
2018-08-16T08:39:03.680Z,2004.00
2018-08-16T08:40:03.601Z,2004.00
2018-08-16T08:41:03.589Z,2056.00
2018-08-16T08:42:03.567Z,2140.00
2018-08-16T08:43:03.554Z,2252.00
2018-08-16T08:44:03.541Z,2164.00
2018-08-16T08:45:03.530Z,2104.00
2018-08-16T08:46:03.513Z,2088.00
2018-08-16T08:47:03.499Z,1284.00
2018-08-16T08:48:03.489Z,1068.00
2018-08-16T08:49:03.473Z,868.00
2018-08-16T08:50:03.467Z,2140.00
2018-08-16T08:51:03.447Z,2000.00
2018-08-16T08:52:03.437Z,1288.00
2018-08-16T08:53:03.418Z,2324.00
2018-08-16T08:54:03.404Z,2108.00
2018-08-16T08:55:03.393Z,2228.00
2018-08-16T08:56:03.375Z,912.00
2018-08-16T08:57:03.362Z,1500.00
2018-08-16T08:58:03.351Z,2220.00
2018-08-16T08:59:03.333Z,1760.00
2018-08-16T09:00:03.323Z,748.00
2018-08-16T09:01:03.306Z,1556.00
2018-08-16T09:02:03.291Z,1020.00
2018-08-16T09:03:03.280Z,1668.00
2018-08-16T09:04:03.268Z,804.00
2018-08-16T09:05:03.250Z,836.00
2018-08-16T09:06:03.236Z,2168.00
2018-08-16T09:07:03.223Z,2240.00
2018-08-16T09:08:03.211Z,976.00
2018-08-16T09:09:03.196Z,2352.00
2018-08-16T09:10:03.382Z,2012.00
2018-08-16T09:11:03.167Z,1976.00
2018-08-16T09:12:03.161Z,2068.00
2018-08-16T09:13:03.143Z,1564.00
2018-08-16T09:14:03.124Z,1912.00
2018-08-16T09:15:03.111Z,1196.00
2018-08-16T09:16:03.098Z,1768.00
2018-08-16T09:17:03.085Z,1352.00
2018-08-16T09:18:03.072Z,1784.00
2018-08-16T09:19:03.060Z,1864.00
2018-08-16T09:20:03.042Z,1444.00
2018-08-16T09:21:03.047Z,2080.00
2018-08-16T09:22:03.013Z,2104.00
2018-08-16T09:23:03.001Z,2100.00
2018-08-16T09:24:03.032Z,1920.00
2018-08-16T09:25:02.982Z,1876.00
2018-08-16T09:26:02.960Z,1580.00
2018-08-16T09:27:02.948Z,2068.00
2018-08-16T09:28:02.933Z,792.00
2018-08-16T09:29:02.921Z,2212.00
2018-08-16T09:30:02.905Z,2096.00
2018-08-16T09:31:02.925Z,908.00
2018-08-16T09:32:02.893Z,2176.00
2018-08-16T09:33:02.866Z,1568.00
2018-08-16T09:34:02.852Z,2032.00
2018-08-16T09:35:02.843Z,1548.00
2018-08-16T09:36:02.832Z,2216.00
2018-08-16T09:37:02.819Z,2132.00
2018-08-16T09:38:02.802Z,948.00
2018-08-16T09:39:02.790Z,2180.00
2018-08-16T09:40:02.776Z,2204.00
2018-08-16T09:41:02.758Z,2460.00
2018-08-16T09:42:02.743Z,1844.00
2018-08-16T09:43:02.731Z,2572.00
2018-08-16T09:44:02.716Z,2500.00
2018-08-16T09:45:02.704Z,2388.00
2018-08-16T09:46:02.692Z,2312.00
2018-08-16T09:47:02.678Z,2160.00
2018-08-16T09:48:02.664Z,2164.00
2018-08-16T09:49:02.653Z,2208.00
2018-08-16T09:50:02.636Z,2160.00
2018-08-16T09:51:02.623Z,2144.00
2018-08-16T09:52:02.611Z,2112.00
2018-08-16T09:53:02.611Z,2152.00
2018-08-16T09:54:02.582Z,2096.00
2018-08-16T09:55:02.573Z,2052.00
2018-08-16T09:56:02.564Z,2132.00
2018-08-16T09:57:02.552Z,2084.00
2018-08-16T09:58:02.538Z,2224.00
2018-08-16T09:59:02.526Z,2228.00
2018-08-16T10:00:02.506Z,1408.00
2018-08-16T10:01:02.495Z,2052.00
2018-08-16T10:02:02.536Z,2116.00
2018-08-16T10:03:02.487Z,1144.00
2018-08-16T10:04:02.455Z,2128.00
2018-08-16T10:05:02.447Z,1980.00
2018-08-16T10:06:02.429Z,1900.00
2018-08-16T10:07:02.419Z,2096.00
2018-08-16T10:08:02.405Z,2168.00
2018-08-16T10:09:02.389Z,2180.00
2018-08-16T10:10:02.383Z,2100.00
2018-08-16T10:11:02.373Z,1876.00
2018-08-16T10:12:02.353Z,1944.00
2018-08-16T10:13:02.339Z,1952.00
2018-08-16T10:14:02.322Z,1860.00
2018-08-16T10:15:02.312Z,2012.00
2018-08-16T10:16:02.299Z,2100.00
2018-08-16T10:17:02.282Z,2196.00
2018-08-16T10:18:02.300Z,2080.00
2018-08-16T10:19:02.269Z,2016.00
2018-08-16T10:20:02.254Z,2108.00
2018-08-16T10:21:02.234Z,2152.00
2018-08-16T10:22:02.220Z,2280.00
2018-08-16T10:23:02.208Z,2240.00
2018-08-16T10:24:02.198Z,2140.00
2018-08-16T10:25:02.184Z,2176.00
2018-08-16T10:26:02.175Z,2248.00
2018-08-16T10:27:02.252Z,2136.00
2018-08-16T10:28:02.142Z,2176.00
2018-08-16T10:29:02.131Z,2248.00
2018-08-16T10:30:02.124Z,2204.00
2018-08-16T10:31:02.105Z,2220.00
2018-08-16T10:32:02.095Z,2200.00
2018-08-16T10:33:02.089Z,2164.00
2018-08-16T10:34:02.069Z,2152.00
2018-08-16T10:35:02.055Z,2180.00
2018-08-16T10:36:02.049Z,2276.00
2018-08-16T10:37:02.055Z,2252.00
2018-08-16T10:38:02.015Z,2256.00
2018-08-16T10:39:02.004Z,2180.00
2018-08-16T10:40:01.991Z,2136.00
2018-08-16T10:41:01.982Z,2032.00
2018-08-16T10:42:01.966Z,2052.00
2018-08-16T10:43:01.961Z,2088.00
2018-08-16T10:44:01.943Z,2176.00
2018-08-16T10:45:01.932Z,2028.00
2018-08-16T10:46:01.915Z,2148.00
2018-08-16T10:47:01.902Z,2060.00
2018-08-16T10:48:01.889Z,2180.00
2018-08-16T10:49:01.887Z,2256.00
2018-08-16T10:50:01.865Z,2164.00
2018-08-16T10:51:01.853Z,2256.00
2018-08-16T10:52:01.840Z,2308.00
2018-08-16T10:53:01.843Z,2288.00
2018-08-16T10:54:01.821Z,2228.00
2018-08-16T10:55:01.802Z,2140.00
2018-08-16T10:56:01.789Z,2128.00
2018-08-16T10:57:01.777Z,2148.00
2018-08-16T10:58:01.767Z,2168.00
2018-08-16T10:59:01.753Z,2252.00
2018-08-16T11:00:01.774Z,2104.00
2018-08-16T11:01:01.730Z,2080.00
2018-08-16T11:02:01.715Z,2112.00
2018-08-16T11:03:01.712Z,2108.00
2018-08-16T11:04:01.691Z,2208.00
2018-08-16T11:05:01.682Z,2176.00
2018-08-16T11:06:01.671Z,2096.00
2018-08-16T11:07:01.659Z,2004.00
2018-08-16T11:08:01.643Z,2056.00
2018-08-16T11:09:01.638Z,2120.00
2018-08-16T11:10:01.619Z,2232.00
2018-08-16T11:11:01.610Z,2296.00
2018-08-16T11:12:01.595Z,2296.00
2018-08-16T11:13:01.583Z,2216.00
2018-08-16T11:14:01.572Z,2284.00
2018-08-16T11:15:01.603Z,2208.00
2018-08-16T11:16:01.545Z,2196.00
2018-08-16T11:17:01.538Z,2236.00
2018-08-16T11:18:01.529Z,2296.00
2018-08-16T11:19:01.550Z,2304.00
2018-08-16T11:20:01.498Z,2328.00
2018-08-16T11:21:01.488Z,2332.00
2018-08-16T11:22:01.472Z,2372.00
2018-08-16T11:23:01.464Z,2248.00
2018-08-16T11:24:01.458Z,2312.00
2018-08-16T11:25:01.435Z,2332.00
2018-08-16T11:26:01.427Z,2348.00
2018-08-16T11:27:01.418Z,2360.00
2018-08-16T11:28:01.402Z,2272.00
2018-08-16T11:29:01.413Z,2260.00
2018-08-16T11:30:01.376Z,2268.00
2018-08-16T11:31:01.363Z,2272.00
2018-08-16T11:32:01.355Z,2300.00
2018-08-16T11:33:01.340Z,2332.00
2018-08-16T11:34:01.333Z,2272.00
2018-08-16T11:35:01.338Z,2292.00
2018-08-16T11:36:01.307Z,2280.00
2018-08-16T11:37:01.293Z,2288.00
2018-08-16T11:38:01.280Z,2264.00
2018-08-16T11:39:01.272Z,2168.00
2018-08-16T11:40:01.259Z,2152.00
2018-08-16T11:41:01.258Z,2188.00
2018-08-16T11:42:01.238Z,2252.00
2018-08-16T11:43:01.232Z,2232.00
2018-08-16T11:44:01.207Z,2264.00
2018-08-16T11:45:01.197Z,2272.00
2018-08-16T11:46:01.184Z,2212.00
2018-08-16T11:47:01.172Z,2216.00
2018-08-16T11:48:01.171Z,1824.00
2018-08-16T11:49:01.149Z,1916.00
2018-08-16T11:50:01.143Z,2076.00
2018-08-16T11:51:01.135Z,1944.00
2018-08-16T11:52:01.115Z,1952.00
2018-08-16T11:53:01.102Z,2028.00
2018-08-16T11:54:01.091Z,1880.00
2018-08-16T11:55:01.082Z,1904.00
2018-08-16T11:56:01.075Z,2124.00
2018-08-16T11:57:01.054Z,2372.00
2018-08-16T11:58:01.047Z,2228.00
2018-08-16T11:59:01.030Z,2268.00
2018-08-16T12:00:01.025Z,2316.00
2018-08-16T12:01:01.011Z,2420.00
2018-08-16T12:02:01.026Z,2520.00
2018-08-16T12:03:00.989Z,2580.00
2018-08-16T12:04:00.972Z,2556.00
2018-08-16T12:05:00.960Z,2564.00
2018-08-16T12:06:00.949Z,2508.00
2018-08-16T12:07:00.938Z,2404.00
2018-08-16T12:08:00.924Z,2152.00
2018-08-16T12:09:00.915Z,2268.00
2018-08-16T12:10:00.910Z,2056.00
2018-08-16T12:11:00.888Z,2384.00
2018-08-16T12:12:00.892Z,2472.00
2018-08-16T12:13:00.886Z,2500.00
2018-08-16T12:14:00.854Z,2456.00
2018-08-16T12:15:00.898Z,2424.00
2018-08-16T12:16:00.834Z,2488.00
2018-08-16T12:17:00.819Z,2468.00
2018-08-16T12:18:00.806Z,2448.00
2018-08-16T12:19:00.800Z,2460.00
2018-08-16T12:20:00.785Z,2404.00
2018-08-16T12:21:00.810Z,2372.00
2018-08-16T12:22:00.760Z,2348.00
2018-08-16T12:23:00.756Z,2052.00
2018-08-16T12:24:00.743Z,2004.00
2018-08-16T12:25:00.727Z,2132.00
2018-08-16T12:26:00.716Z,2240.00
2018-08-16T12:27:00.702Z,2112.00
2018-08-16T12:28:00.693Z,2044.00
2018-08-16T12:29:00.781Z,2248.00
2018-08-16T12:30:00.669Z,2252.00
2018-08-16T12:31:00.664Z,2240.00
2018-08-16T12:32:00.646Z,2336.00
2018-08-16T12:33:00.639Z,2420.00
2018-08-16T12:34:00.627Z,2200.00
2018-08-16T12:35:00.764Z,2336.00
2018-08-16T12:36:00.613Z,2280.00